Time;durP1;ratioP1;P1;durP2;ratioP2;P2;SDS_P1;SDS_P2;PMS_P1;PMS_P2;Temp;Humidity;BMP_temperature;BMP_pressure;BME280_temperature;BME280_humidity;BME280_pressure;Samples;Min_cycle;Max_cycle;Signal;HPM_P1;HPM_P2
2022/02/19 00:00:35;;;;;;;26.08;21.45;;;;;21.40;99207.00;;;;2086093;28;20703;-49
2022/02/19 00:01:36;;;;;;;27.03;22.50;;;;;21.40;99216.00;;;;2077678;28;20201;-51
2022/02/19 00:02:36;;;;;;;25.37;20.93;;;;;21.40;99216.00;;;;2078990;28;20973;-49
2022/02/19 00:03:37;;;;;;;26.23;21.00;;;;;21.40;99198.00;;;;2074013;28;20755;-49
2022/02/19 00:04:38;;;;;;;24.60;19.73;;;;;21.40;99173.00;;;;2075272;28;20543;-49
2022/02/19 00:05:39;;;;;;;26.70;21.30;;;;;21.40;99232.00;;;;2078508;28;20224;-48
2022/02/19 00:06:40;;;;;;;25.15;20.33;;;;;21.40;99221.00;;;;2078826;28;20217;-49
2022/02/19 00:07:41;;;;;;;21.10;18.00;;;;;21.40;99223.00;;;;2081932;28;20225;-49
2022/02/19 00:08:41;;;;;;;21.30;18.10;;;;;21.40;99231.00;;;;2079117;28;20480;-49
2022/02/19 00:09:42;;;;;;;24.43;19.27;;;;;21.40;99227.00;;;;2086154;28;20270;-50
2022/02/19 00:10:42;;;;;;;22.17;19.40;;;;;21.40;99235.00;;;;2085616;28;20295;-50
2022/02/19 00:11:43;;;;;;;21.93;17.40;;;;;21.40;99235.00;;;;2079345;28;20221;-50
2022/02/19 00:12:43;;;;;;;21.77;18.33;;;;;21.40;99226.00;;;;2082317;28;20220;-49
2022/02/19 00:13:43;;;;;;;22.53;17.60;;;;;21.40;99244.00;;;;2085635;28;20265;-50
2022/02/19 00:14:44;;;;;;;19.50;16.57;;;;;21.40;99244.00;;;;2086790;28;20287;-49
2022/02/19 00:15:47;;;;;;;20.80;18.60;;;;;21.40;99233.00;;;;2085720;28;20220;-51
2022/02/19 00:16:47;;;;;;;20.40;17.15;;;;;21.40;99249.00;;;;2086403;28;20220;-48
2022/02/19 00:17:48;;;;;;;20.17;17.37;;;;;21.40;99236.00;;;;2087202;28;20251;-49
2022/02/19 00:18:48;;;;;;;22.00;17.00;;;;;21.40;99227.00;;;;2086907;28;20592;-49
2022/02/19 00:19:49;;;;;;;20.50;16.60;;;;;21.40;99251.00;;;;2084207;28;20236;-50
2022/02/19 00:20:50;;;;;;;19.00;15.30;;;;;21.40;99259.00;;;;2084281;28;20315;-49
2022/02/19 00:21:50;;;;;;;20.92;17.08;;;;;21.40;99258.00;;;;2083858;28;20279;-49
2022/02/19 00:22:51;;;;;;;19.97;16.67;;;;;21.40;99274.00;;;;2078037;28;20664;-55
2022/02/19 00:23:51;;;;;;;20.63;16.30;;;;;21.40;99258.00;;;;2078856;28;20275;-55
2022/02/19 00:24:52;;;;;;;20.27;17.07;;;;;21.40;99278.00;;;;2083438;28;20213;-49
2022/02/19 00:25:52;;;;;;;20.50;15.60;;;;;21.40;99269.00;;;;2078508;28;20212;-49
2022/02/19 00:26:54;;;;;;;15.83;14.07;;;;;21.40;99266.00;;;;2086318;28;20215;-49
2022/02/19 00:27:54;;;;;;;16.20;14.50;;;;;21.40;99282.00;;;;2078940;28;20569;-49
2022/02/19 00:28:55;;;;;;;18.40;15.10;;;;;21.30;99279.00;;;;2079138;28;20216;-49
2022/02/19 00:29:55;;;;;;;18.50;15.40;;;;;21.40;99288.00;;;;2078658;28;20570;-49
2022/02/19 00:30:56;;;;;;;19.10;14.57;;;;;21.40;99285.00;;;;2075854;28;20236;-49
2022/02/19 00:31:56;;;;;;;17.30;13.90;;;;;21.30;99291.00;;;;2079168;28;20221;-48
2022/02/19 00:32:56;;;;;;;16.23;13.33;;;;;21.30;99294.00;;;;2080741;28;20482;-48
2022/02/19 00:33:57;;;;;;;18.30;15.07;;;;;21.30;99299.00;;;;2084342;28;20257;-48
2022/02/19 00:34:57;;;;;;;18.10;15.17;;;;;21.30;99296.00;;;;2078153;28;20308;-49
2022/02/19 00:35:57;;;;;;;17.47;13.73;;;;;21.30;99289.00;;;;2084175;28;20218;-49
2022/02/19 00:36:58;;;;;;;16.10;12.90;;;;;21.30;99298.00;;;;2079370;28;20221;-47
2022/02/19 00:37:58;;;;;;;15.00;13.03;;;;;21.30;99295.00;;;;2081908;28;20252;-48
2022/02/19 00:38:59;;;;;;;14.27;12.70;;;;;21.30;99298.00;;;;2087793;28;20220;-48
2022/02/19 00:39:59;;;;;;;17.43;13.70;;;;;21.30;99315.00;;;;2087313;28;20248;-49
2022/02/19 00:41:00;;;;;;;16.57;12.80;;;;;21.30;99305.00;;;;2083232;28;20229;-48
2022/02/19 00:42:02;;;;;;;15.80;12.47;;;;;21.30;99316.00;;;;2087513;28;20286;-49
2022/02/19 00:43:02;;;;;;;16.75;13.43;;;;;21.30;99323.00;;;;2083629;28;20260;-49
2022/02/19 00:44:03;;;;;;;15.07;12.80;;;;;21.30;99317.00;;;;2083715;28;20228;-48
2022/02/19 00:45:04;;;;;;;15.37;12.73;;;;;21.30;99317.00;;;;2087527;28;20220;-48
2022/02/19 00:46:04;;;;;;;15.10;12.00;;;;;21.30;99333.00;;;;2083914;28;20220;-49
2022/02/19 00:47:04;;;;;;;14.53;12.40;;;;;21.30;99324.00;;;;2087558;28;20213;-49
2022/02/19 00:48:05;;;;;;;14.30;11.27;;;;;21.30;99323.00;;;;2083904;28;20688;-49
2022/02/19 00:49:06;;;;;;;12.60;11.02;;;;;21.30;99299.00;;;;2083116;28;20271;-49
2022/02/19 00:50:08;;;;;;;14.87;10.67;;;;;21.30;99326.00;;;;2086813;28;20220;-49
2022/02/19 00:51:09;;;;;;;13.50;11.38;;;;;21.30;99323.00;;;;2078666;28;20218;-49
2022/02/19 00:52:09;;;;;;;12.90;10.97;;;;;21.30;99325.00;;;;2078812;28;20221;-49
2022/02/19 00:53:09;;;;;;;12.10;10.53;;;;;21.30;99330.00;;;;2076896;28;20225;-49
2022/02/19 00:54:10;;;;;;;13.23;11.30;;;;;21.30;99346.00;;;;2081669;28;20244;-48
2022/02/19 00:55:10;;;;;;;12.90;11.10;;;;;21.10;99313.00;;;;2084185;28;20213;-49
2022/02/19 00:56:10;;;;;;;12.80;10.93;;;;;21.30;99327.00;;;;2087119;28;20221;-50
2022/02/19 00:57:11;;;;;;;14.53;10.60;;;;;21.30;99333.00;;;;2082295;28;20235;-48
2022/02/19 00:58:12;;;;;;;12.30;9.40;;;;;21.30;99329.00;;;;2079301;28;20213;-48
2022/02/19 00:59:12;;;;;;;11.43;9.97;;;;;21.30;99340.00;;;;2079351;28;20240;-48
2022/02/19 01:00:12;;;;;;;12.03;10.43;;;;;21.30;99344.00;;;;2078839;28;20210;-48
2022/02/19 01:01:13;;;;;;;11.37;10.10;;;;;21.30;99331.00;;;;2079439;28;20217;-49
2022/02/19 01:02:13;;;;;;;13.60;11.03;;;;;21.30;99332.00;;;;2087276;28;20217;-49
2022/02/19 01:03:14;;;;;;;13.10;10.23;;;;;21.30;99354.00;;;;2087414;28;20218;-50
2022/02/19 01:04:14;;;;;;;13.93;10.23;;;;;21.30;99338.00;;;;2087111;28;20283;-49
2022/02/19 01:05:14;;;;;;;12.40;10.07;;;;;21.30;99333.00;;;;2078967;28;20585;-49
2022/02/19 01:06:15;;;;;;;12.37;9.40;;;;;21.30;99331.00;;;;2084391;28;20823;-49
2022/02/19 01:07:15;;;;;;;13.03;9.53;;;;;21.30;99335.00;;;;2083412;28;20709;-49
2022/02/19 01:08:15;;;;;;;12.90;9.60;;;;;21.30;99349.00;;;;2087500;28;20725;-49
2022/02/19 01:09:16;;;;;;;13.53;9.87;;;;;21.20;99334.00;;;;2084316;28;20213;-49
2022/02/19 01:10:18;;;;;;;11.00;9.43;;;;;21.20;99341.00;;;;2086847;28;20295;-49
2022/02/19 01:11:19;;;;;;;12.07;10.07;;;;;21.30;99337.00;;;;2086591;28;20236;-48
2022/02/19 01:12:19;;;;;;;10.20;8.70;;;;;21.20;99338.00;;;;2083544;28;20562;-49
2022/02/19 01:13:20;;;;;;;12.50;9.57;;;;;21.20;99358.00;;;;2075433;28;20465;-49
2022/02/19 01:14:20;;;;;;;9.27;7.80;;;;;21.20;99347.00;;;;2082836;28;20252;-49
2022/02/19 01:15:21;;;;;;;11.07;8.90;;;;;21.20;99366.00;;;;2078917;28;20300;-48
2022/02/19 01:16:21;;;;;;;12.67;9.30;;;;;21.20;99365.00;;;;2085057;28;20217;-49
2022/02/19 01:17:21;;;;;;;11.20;8.33;;;;;21.20;99368.00;;;;2079277;28;20292;-49
2022/02/19 01:18:22;;;;;;;11.10;8.73;;;;;21.20;99370.00;;;;2080627;28;20216;-49
2022/02/19 01:19:22;;;;;;;10.90;7.83;;;;;21.20;99356.00;;;;2087248;28;20215;-48
2022/02/19 01:20:22;;;;;;;12.23;8.90;;;;;21.20;99358.00;;;;2086755;28;20209;-49
2022/02/19 01:21:23;;;;;;;9.13;7.30;;;;;21.20;99367.00;;;;2086492;28;20299;-49
2022/02/19 01:22:23;;;;;;;11.43;8.17;;;;;21.20;99371.00;;;;2081444;28;20213;-48
2022/02/19 01:23:24;;;;;;;10.43;8.30;;;;;21.20;99374.00;;;;2078234;28;20224;-48
2022/02/19 01:24:24;;;;;;;8.70;7.10;;;;;21.20;99380.00;;;;2077966;28;20721;-49
2022/02/19 01:25:24;;;;;;;10.27;8.57;;;;;21.20;99389.00;;;;2077134;28;20217;-49
2022/02/19 01:26:25;;;;;;;8.57;7.53;;;;;21.20;99388.00;;;;2086210;28;20215;-49
2022/02/19 01:27:25;;;;;;;10.83;7.53;;;;;21.20;99384.00;;;;2081302;28;20221;-48
2022/02/19 01:28:26;;;;;;;11.63;7.20;;;;;21.20;99394.00;;;;2085653;28;20235;-49
2022/02/19 01:29:26;;;;;;;9.03;6.60;;;;;21.20;99400.00;;;;2086971;28;20584;-48
2022/02/19 01:30:27;;;;;;;8.77;6.93;;;;;21.20;99393.00;;;;2074625;28;20271;-49
2022/02/19 01:31:27;;;;;;;10.27;7.63;;;;;21.20;99390.00;;;;2078577;28;20275;-49
2022/02/19 01:32:27;;;;;;;9.83;7.00;;;;;21.20;99405.00;;;;2078798;28;20224;-49
2022/02/19 01:33:28;;;;;;;8.57;7.20;;;;;21.20;99389.00;;;;2079003;28;20209;-48
2022/02/19 01:34:28;;;;;;;9.20;7.30;;;;;21.20;99399.00;;;;2079513;28;20227;-49
2022/02/19 01:35:28;;;;;;;9.30;7.13;;;;;21.20;99386.00;;;;2086526;28;20216;-49
2022/02/19 01:36:29;;;;;;;8.47;6.83;;;;;21.20;99391.00;;;;2079176;28;20228;-48
2022/02/19 01:37:30;;;;;;;7.50;6.20;;;;;21.20;99397.00;;;;2078059;28;20241;-49
2022/02/19 01:38:30;;;;;;;8.30;6.63;;;;;21.20;99402.00;;;;2078098;28;20863;-48
2022/02/19 01:39:31;;;;;;;7.73;6.80;;;;;21.20;99398.00;;;;2083988;28;20690;-49
2022/02/19 01:40:31;;;;;;;7.70;6.00;;;;;21.20;99401.00;;;;2083054;28;20217;-49
2022/02/19 01:41:32;;;;;;;7.43;6.43;;;;;21.20;99408.00;;;;2069875;28;20294;-49
2022/02/19 01:42:32;;;;;;;8.17;6.33;;;;;21.20;99414.00;;;;2082312;28;20209;-49
2022/02/19 01:43:32;;;;;;;8.40;6.50;;;;;21.20;99423.00;;;;2081848;28;20546;-56
2022/02/19 01:44:35;;;;;;;7.60;6.60;;;;;21.20;99422.00;;;;2078753;28;20217;-51
2022/02/19 01:45:35;;;;;;;8.38;6.97;;;;;21.20;99415.00;;;;2078913;28;20220;-49
2022/02/19 01:46:36;;;;;;;7.50;5.93;;;;;21.20;99422.00;;;;2086598;28;20753;-49
2022/02/19 01:47:36;;;;;;;9.33;5.90;;;;;21.20;99410.00;;;;2086960;28;20237;-49
2022/02/19 01:48:36;;;;;;;7.90;6.30;;;;;21.20;99408.00;;;;2085976;28;20211;-49
2022/02/19 01:49:37;;;;;;;7.43;5.80;;;;;21.20;99434.00;;;;2087057;28;20220;-49
2022/02/19 01:50:38;;;;;;;8.43;6.50;;;;;21.20;99421.00;;;;2086190;28;20209;-49
2022/02/19 01:51:38;;;;;;;7.10;5.73;;;;;21.20;99431.00;;;;2086679;28;20452;-48
2022/02/19 01:52:40;;;;;;;8.70;6.10;;;;;21.20;99424.00;;;;2080179;28;20236;-49
2022/02/19 01:53:40;;;;;;;8.35;6.40;;;;;21.20;99416.00;;;;2080635;28;20864;-49
2022/02/19 01:54:41;;;;;;;7.33;5.70;;;;;21.20;99431.00;;;;2069567;28;20237;-48
2022/02/19 01:55:41;;;;;;;6.53;5.03;;;;;21.10;99434.00;;;;2078074;28;20725;-48
2022/02/19 01:56:42;;;;;;;7.43;5.90;;;;;21.10;99421.00;;;;2080581;28;20296;-49
2022/02/19 01:57:42;;;;;;;7.33;5.40;;;;;21.10;99434.00;;;;2080881;28;20232;-49
2022/02/19 01:58:42;;;;;;;6.33;5.47;;;;;21.10;99450.00;;;;2078757;28;20232;-49
2022/02/19 01:59:43;;;;;;;7.27;5.93;;;;;21.10;99455.00;;;;2078277;28;20244;-49
2022/02/19 02:00:43;;;;;;;6.80;5.50;;;;;21.10;99449.00;;;;2079083;28;21121;-48
2022/02/19 02:01:44;;;;;;;7.07;5.07;;;;;21.10;99449.00;;;;2079705;28;20218;-49
2022/02/19 02:02:44;;;;;;;7.43;5.70;;;;;21.10;99466.00;;;;2078889;28;20217;-49
2022/02/19 02:03:44;;;;;;;7.67;5.40;;;;;21.10;99456.00;;;;2078804;28;20214;-49
2022/02/19 02:04:45;;;;;;;6.57;5.53;;;;;21.10;99460.00;;;;2078185;28;20992;-49
2022/02/19 02:05:46;;;;;;;5.43;4.90;;;;;21.10;99455.00;;;;2078443;28;20222;-48
2022/02/19 02:06:48;;;;;;;8.87;6.67;;;;;21.10;99449.00;;;;2078815;28;20239;-49
2022/02/19 02:07:48;;;;;;;6.88;4.97;;;;;21.10;99459.00;;;;2086213;28;20459;-49
2022/02/19 02:08:48;;;;;;;7.07;5.40;;;;;21.10;99450.00;;;;2082913;28;20209;-49
2022/02/19 02:09:49;;;;;;;7.77;5.10;;;;;21.10;99464.00;;;;2084342;28;20973;-49
2022/02/19 02:10:49;;;;;;;6.10;4.97;;;;;21.10;99469.00;;;;2085501;28;20697;-49
2022/02/19 02:11:49;;;;;;;6.23;4.73;;;;;21.10;99487.00;;;;2085994;28;20246;-49
2022/02/19 02:12:50;;;;;;;6.77;4.77;;;;;21.10;99473.00;;;;2075455;28;20721;-50
2022/02/19 02:13:50;;;;;;;6.53;4.90;;;;;21.10;99474.00;;;;2080106;28;20705;-48
2022/02/19 02:14:51;;;;;;;5.97;4.40;;;;;21.10;99469.00;;;;2078806;28;20213;-48
2022/02/19 02:15:52;;;;;;;6.50;4.97;;;;;21.00;99463.00;;;;2078035;28;20206;-49
2022/02/19 02:16:52;;;;;;;6.43;4.90;;;;;21.00;99475.00;;;;2077935;28;20201;-48
2022/02/19 02:17:52;;;;;;;6.53;4.90;;;;;21.00;99469.00;;;;2078753;28;20208;-49
2022/02/19 02:18:53;;;;;;;5.10;4.10;;;;;21.00;99467.00;;;;2078775;28;20205;-49
2022/02/19 02:19:53;;;;;;;5.20;4.70;;;;;21.00;99466.00;;;;2086004;28;20240;-49
2022/02/19 02:20:54;;;;;;;7.00;4.43;;;;;21.00;99481.00;;;;2086184;28;20271;-49
2022/02/19 02:21:54;;;;;;;6.30;4.50;;;;;21.00;99476.00;;;;2086576;28;20625;-49
2022/02/19 02:22:55;;;;;;;6.37;4.40;;;;;21.00;99484.00;;;;2084634;28;20209;-48
2022/02/19 02:23:55;;;;;;;5.63;4.60;;;;;21.00;99506.00;;;;2082325;28;20228;-49
2022/02/19 02:24:56;;;;;;;6.93;4.30;;;;;21.00;99495.00;;;;2081482;28;20486;-49
2022/02/19 02:25:57;;;;;;;7.30;4.10;;;;;21.00;99501.00;;;;2082825;28;20243;-50
2022/02/19 02:26:58;;;;;;;7.13;4.25;;;;;21.00;99476.00;;;;2079585;28;20210;-49
2022/02/19 02:27:58;;;;;;;4.97;3.87;;;;;21.00;99505.00;;;;2085463;28;20236;-50
2022/02/19 02:28:58;;;;;;;8.63;4.90;;;;;21.00;99503.00;;;;2085906;28;20221;-49
2022/02/19 02:29:59;;;;;;;6.10;3.80;;;;;21.00;99500.00;;;;2085589;28;20223;-49
2022/02/19 02:30:59;;;;;;;5.50;3.67;;;;;21.00;99510.00;;;;2085511;28;20255;-48
2022/02/19 02:31:59;;;;;;;6.57;4.30;;;;;21.00;99509.00;;;;2086557;28;20220;-49
2022/02/19 02:33:10;;;;;;;6.03;4.50;;;;;21.00;99524.00;;;;2085237;28;20293;-49
2022/02/19 02:34:11;;;;;;;5.85;3.50;;;;;21.00;99519.00;;;;2079107;28;20300;-49
2022/02/19 02:35:12;;;;;;;7.70;4.10;;;;;21.00;99519.00;;;;2073659;28;20213;-49
2022/02/19 02:36:12;;;;;;;6.27;3.90;;;;;21.00;99525.00;;;;2073715;28;20452;-49
2022/02/19 02:37:12;;;;;;;6.20;3.53;;;;;21.00;99519.00;;;;2086623;28;20205;-49
2022/02/19 02:38:12;;;;;;;4.20;3.53;;;;;21.00;99522.00;;;;2086739;28;20335;-49
2022/02/19 02:39:13;;;;;;;6.63;3.83;;;;;21.00;99523.00;;;;2082964;28;20221;-50
2022/02/19 02:40:13;;;;;;;6.33;4.00;;;;;21.00;99515.00;;;;2078577;28;20210;-48
2022/02/19 02:41:15;;;;;;;6.30;4.37;;;;;21.00;99532.00;;;;2079579;28;20213;-49
2022/02/19 02:42:15;;;;;;;5.75;3.80;;;;;21.00;99540.00;;;;2083758;28;20232;-48
2022/02/19 02:43:16;;;;;;;6.17;3.63;;;;;21.00;99533.00;;;;2082320;28;20932;-49
2022/02/19 02:44:17;;;;;;;5.37;3.80;;;;;21.00;99536.00;;;;2081858;28;20713;-49
2022/02/19 02:45:18;;;;;;;6.22;3.45;;;;;20.90;99530.00;;;;2080220;28;20206;-48
2022/02/19 02:46:18;;;;;;;7.00;3.83;;;;;20.90;99526.00;;;;2086663;28;20282;-49
2022/02/19 02:47:18;;;;;;;6.27;4.00;;;;;20.90;99523.00;;;;2086503;28;20225;-49
2022/02/19 02:48:19;;;;;;;4.70;3.17;;;;;20.90;99527.00;;;;2078621;28;20206;-50
2022/02/19 02:49:19;;;;;;;5.00;3.00;;;;;21.00;99528.00;;;;2082958;28;20310;-49
2022/02/19 02:50:19;;;;;;;5.03;3.70;;;;;21.00;99532.00;;;;2079392;28;20198;-49
2022/02/19 02:51:20;;;;;;;5.20;3.27;;;;;21.00;99531.00;;;;2078063;28;20260;-49
2022/02/19 02:52:20;;;;;;;7.40;3.40;;;;;21.00;99532.00;;;;2076764;28;20214;-48
2022/02/19 02:53:20;;;;;;;6.33;3.30;;;;;21.00;99536.00;;;;2078194;28;20245;-49
2022/02/19 02:54:21;;;;;;;4.73;3.13;;;;;21.00;99540.00;;;;2081527;28;20215;-48
2022/02/19 02:55:21;;;;;;;5.40;3.33;;;;;20.90;99551.00;;;;2078020;28;20850;-49
2022/02/19 02:56:22;;;;;;;4.70;3.30;;;;;20.90;99549.00;;;;2077976;28;20312;-49
2022/02/19 02:57:22;;;;;;;7.57;3.47;;;;;20.90;99538.00;;;;2077211;28;20205;-48
2022/02/19 02:58:23;;;;;;;5.27;3.03;;;;;20.90;99551.00;;;;2079716;28;20213;-49
2022/02/19 02:59:23;;;;;;;5.30;3.30;;;;;20.90;99555.00;;;;2086101;28;20240;-49
2022/02/19 03:00:24;;;;;;;7.10;2.87;;;;;20.90;99564.00;;;;2077632;28;20212;-49
2022/02/19 03:01:25;;;;;;;7.38;4.05;;;;;20.90;99548.00;;;;2078394;28;20217;-48
2022/02/19 03:02:25;;;;;;;4.27;2.77;;;;;20.90;99557.00;;;;2078138;28;20205;-49
2022/02/19 03:03:25;;;;;;;6.70;3.53;;;;;20.90;99551.00;;;;2078135;28;20910;-49
2022/02/19 03:04:26;;;;;;;3.67;2.70;;;;;20.90;99548.00;;;;2081512;28;20245;-49
2022/02/19 03:05:26;;;;;;;5.43;3.10;;;;;20.90;99560.00;;;;2077862;28;20205;-49
2022/02/19 03:06:26;;;;;;;7.20;3.53;;;;;20.90;99581.00;;;;2078137;28;20626;-49
2022/02/19 03:07:27;;;;;;;5.33;2.60;;;;;20.90;99567.00;;;;2078179;28;20222;-48
2022/02/19 03:08:27;;;;;;;5.20;3.27;;;;;20.90;99570.00;;;;2078425;28;20205;-48
2022/02/19 03:09:28;;;;;;;5.00;2.97;;;;;20.90;99583.00;;;;2078482;28;20209;-49
2022/02/19 03:10:28;;;;;;;4.80;2.70;;;;;20.90;99589.00;;;;2077644;28;20229;-49
2022/02/19 03:11:29;;;;;;;6.07;3.10;;;;;20.70;99575.00;;;;2078424;28;20239;-49
2022/02/19 03:12:29;;;;;;;6.40;3.50;;;;;20.90;99576.00;;;;2081376;28;20213;-49
2022/02/19 03:13:30;;;;;;;5.23;3.07;;;;;20.90;99587.00;;;;2078319;28;20221;-48
2022/02/19 03:14:31;;;;;;;3.95;2.42;;;;;20.90;99591.00;;;;2076587;28;20296;-48
2022/02/19 03:15:31;;;;;;;5.33;2.63;;;;;20.90;99590.00;;;;2077719;28;20260;-47
2022/02/19 03:16:32;;;;;;;7.17;2.93;;;;;20.90;99585.00;;;;2083674;28;20856;-48
2022/02/19 03:17:37;;;;;;;3.85;2.35;;;;;20.90;99584.00;;;;2083890;28;20300;-50
2022/02/19 03:18:37;;;;;;;5.18;2.70;;;;;20.90;99604.00;;;;2088023;28;20622;-49
2022/02/19 03:19:37;;;;;;;6.33;3.03;;;;;20.80;99597.00;;;;2085047;28;20225;-48
2022/02/19 03:20:41;;;;;;;5.33;3.00;;;;;20.90;99603.00;;;;2081747;28;20217;-49
2022/02/19 03:21:41;;;;;;;3.72;2.40;;;;;20.80;99602.00;;;;2082304;28;20237;-49
2022/02/19 03:22:41;;;;;;;4.67;2.43;;;;;20.90;99627.00;;;;2079299;28;20578;-49
2022/02/19 03:23:42;;;;;;;4.77;2.40;;;;;20.90;99597.00;;;;2079654;28;20581;-48
2022/02/19 03:24:42;;;;;;;4.80;2.50;;;;;20.80;99621.00;;;;2085824;28;20217;-48
2022/02/19 03:25:43;;;;;;;4.23;2.60;;;;;20.80;99623.00;;;;2082742;28;20219;-49
2022/02/19 03:26:43;;;;;;;4.10;2.63;;;;;20.80;99613.00;;;;2088140;28;20862;-49
2022/02/19 03:27:44;;;;;;;5.30;2.57;;;;;20.90;99634.00;;;;2084775;28;20224;-49
2022/02/19 03:28:44;;;;;;;4.70;2.50;;;;;20.90;99598.00;;;;2079056;28;20217;-49
2022/02/19 03:29:45;;;;;;;3.63;2.40;;;;;20.80;99630.00;;;;2067238;28;20453;-48
2022/02/19 03:30:45;;;;;;;4.87;2.30;;;;;20.80;99627.00;;;;2078990;28;20218;-49
2022/02/19 03:31:45;;;;;;;3.77;2.63;;;;;20.80;99641.00;;;;2087461;28;20678;-49
2022/02/19 03:32:46;;;;;;;5.60;2.43;;;;;20.80;99635.00;;;;2080228;28;20767;-49
2022/02/19 03:33:47;;;;;;;5.10;2.63;;;;;20.80;99626.00;;;;2080397;28;20217;-49
2022/02/19 03:34:47;;;;;;;4.40;2.57;;;;;20.80;99643.00;;;;2087515;28;20500;-49
2022/02/19 03:35:47;;;;;;;4.03;2.00;;;;;20.80;99650.00;;;;2085267;28;20220;-49
2022/02/19 03:36:48;;;;;;;4.60;2.37;;;;;20.80;99636.00;;;;2079046;28;20233;-49
2022/02/19 03:37:49;;;;;;;4.10;2.23;;;;;20.80;99633.00;;;;2083115;28;20212;-50
2022/02/19 03:38:49;;;;;;;3.70;2.50;;;;;20.80;99638.00;;;;2070940;28;20215;-49
2022/02/19 03:39:49;;;;;;;3.47;2.40;;;;;20.80;99641.00;;;;2064711;28;20496;-52
2022/02/19 03:40:50;;;;;;;5.10;2.20;;;;;20.80;99639.00;;;;2073198;28;20217;-55
2022/02/19 03:41:50;;;;;;;4.83;2.30;;;;;20.80;99647.00;;;;2073812;28;20218;-53
2022/02/19 03:42:51;;;;;;;3.80;2.40;;;;;20.80;99651.00;;;;2074265;28;20248;-49
2022/02/19 03:43:51;;;;;;;4.17;2.13;;;;;20.80;99659.00;;;;2078379;28;20217;-49
2022/02/19 03:44:51;;;;;;;5.60;2.30;;;;;20.80;99654.00;;;;2082302;28;20751;-49
2022/02/19 03:45:53;;;;;;;3.67;2.07;;;;;20.80;99660.00;;;;2079401;28;20713;-49
2022/02/19 03:46:54;;;;;;;5.15;2.10;;;;;20.80;99663.00;;;;2080764;28;20276;-49
2022/02/19 03:47:54;;;;;;;4.30;2.03;;;;;20.80;99658.00;;;;2087296;28;20216;-50
2022/02/19 03:48:55;;;;;;;5.47;2.30;;;;;20.80;99667.00;;;;2087360;28;20960;-50
2022/02/19 03:49:55;;;;;;;5.07;2.40;;;;;20.80;99657.00;;;;2087366;28;20231;-48
2022/02/19 03:50:55;;;;;;;4.30;2.40;;;;;20.80;99679.00;;;;2086269;28;20774;-49
2022/02/19 03:51:56;;;;;;;4.70;2.47;;;;;20.80;99674.00;;;;2087183;28;20248;-49
2022/02/19 03:52:56;;;;;;;4.13;2.23;;;;;20.80;99654.00;;;;2078916;28;20268;-49
2022/02/19 03:53:57;;;;;;;4.67;2.10;;;;;20.80;99665.00;;;;2079516;28;20224;-49
2022/02/19 03:54:57;;;;;;;4.57;1.80;;;;;20.80;99684.00;;;;2076587;28;20214;-49
2022/02/19 03:55:58;;;;;;;4.03;2.00;;;;;20.80;99665.00;;;;2087739;28;20213;-49
2022/02/19 03:56:58;;;;;;;5.00;2.07;;;;;20.80;99696.00;;;;2081046;28;20222;-49
2022/02/19 03:57:58;;;;;;;3.30;2.07;;;;;20.80;99687.00;;;;2078845;28;20660;-49
2022/02/19 03:58:59;;;;;;;3.67;2.20;;;;;20.80;99686.00;;;;2078422;28;20618;-49
2022/02/19 03:59:59;;;;;;;5.70;2.30;;;;;20.70;99689.00;;;;2079529;28;20226;-49
2022/02/19 04:01:01;;;;;;;3.53;1.73;;;;;20.80;99698.00;;;;2086521;28;21224;-49
2022/02/19 04:02:01;;;;;;;4.18;1.80;;;;;20.70;99678.00;;;;2086420;28;20221;-49
2022/02/19 04:03:02;;;;;;;4.70;2.50;;;;;20.70;99694.00;;;;2087632;28;20244;-48
2022/02/19 04:04:02;;;;;;;4.50;1.90;;;;;20.80;99682.00;;;;2087538;28;20274;-48
2022/02/19 04:05:03;;;;;;;5.83;2.60;;;;;20.80;99707.00;;;;2087190;28;20221;-48
2022/02/19 04:06:03;;;;;;;2.60;1.90;;;;;20.70;99697.00;;;;2083520;28;20227;-47
2022/02/19 04:07:04;;;;;;;4.63;2.33;;;;;20.70;99707.00;;;;2086615;28;20243;-49
2022/02/19 04:08:05;;;;;;;4.00;2.20;;;;;20.70;99699.00;;;;2086232;28;20307;-49
2022/02/19 04:09:05;;;;;;;4.80;2.45;;;;;20.70;99712.00;;;;2079340;28;20264;-49
2022/02/19 04:10:06;;;;;;;2.90;1.70;;;;;20.70;99711.00;;;;2082475;28;20240;-49
2022/02/19 04:11:07;;;;;;;3.63;2.10;;;;;20.70;99719.00;;;;2085481;28;20204;-48
2022/02/19 04:12:07;;;;;;;4.77;2.33;;;;;20.70;99718.00;;;;2079086;28;20452;-49
2022/02/19 04:13:08;;;;;;;3.47;1.70;;;;;20.70;99712.00;;;;2084468;28;20683;-49
2022/02/19 04:14:08;;;;;;;4.50;1.90;;;;;20.80;99720.00;;;;2082017;28;20211;-49
2022/02/19 04:15:09;;;;;;;3.90;1.70;;;;;20.70;99718.00;;;;2087093;28;20259;-48
2022/02/19 04:16:09;;;;;;;5.43;1.77;;;;;20.70;99720.00;;;;2086213;28;20205;-48
2022/02/19 04:17:09;;;;;;;4.73;2.37;;;;;20.70;99711.00;;;;2078122;28;20224;-48
2022/02/19 04:18:10;;;;;;;4.73;2.00;;;;;20.70;99719.00;;;;2079137;28;20293;-49
2022/02/19 04:19:10;;;;;;;4.93;2.10;;;;;20.70;99731.00;;;;2082541;28;21265;-49
2022/02/19 04:20:10;;;;;;;2.93;1.73;;;;;20.70;99729.00;;;;2087657;28;20965;-49
2022/02/19 04:21:11;;;;;;;4.30;2.10;;;;;20.70;99723.00;;;;2085424;28;20815;-49
2022/02/19 04:22:11;;;;;;;3.80;1.60;;;;;20.70;99730.00;;;;2079120;28;20566;-48
2022/02/19 04:23:12;;;;;;;3.70;1.70;;;;;20.70;99731.00;;;;2109350;23;20209;-74
2022/02/19 04:24:12;;;;;;;5.23;2.00;;;;;20.70;99736.00;;;;2062969;28;20470;-74
2022/02/19 04:25:12;;;;;;;4.07;1.93;;;;;20.70;99738.00;;;;2068521;28;20590;-74
2022/02/19 04:26:13;;;;;;;6.23;2.30;;;;;20.70;99742.00;;;;2066735;28;20691;-74
2022/02/19 04:27:13;;;;;;;4.17;2.17;;;;;20.70;99757.00;;;;2067699;28;20222;-74
2022/02/19 04:28:14;;;;;;;4.63;2.23;;;;;20.70;99767.00;;;;2067104;28;20211;-74
2022/02/19 04:29:14;;;;;;;4.63;2.20;;;;;20.70;99753.00;;;;2068141;28;20215;-74
2022/02/19 04:30:14;;;;;;;2.57;1.50;;;;;20.70;99759.00;;;;2068578;28;20219;-74
2022/02/19 04:31:15;;;;;;;3.57;1.83;;;;;20.70;99752.00;;;;2068592;28;20276;-74
2022/02/19 04:32:16;;;;;;;4.03;2.08;;;;;20.70;99781.00;;;;2067953;28;20214;-74
2022/02/19 04:33:16;;;;;;;3.57;2.00;;;;;20.70;99783.00;;;;2067082;28;20217;-74
2022/02/19 04:34:16;;;;;;;3.17;1.50;;;;;20.70;99775.00;;;;2067677;28;20234;-74
2022/02/19 04:35:17;;;;;;;4.00;1.83;;;;;20.60;99753.00;;;;2067754;28;20272;-74
2022/02/19 04:36:17;;;;;;;3.23;1.60;;;;;20.70;99782.00;;;;2069186;28;20206;-74
2022/02/19 04:37:17;;;;;;;3.90;1.90;;;;;20.70;99775.00;;;;2067756;28;20255;-74
2022/02/19 04:38:21;;;;;;;3.87;1.80;;;;;20.60;99781.00;;;;2067708;28;20214;-74
2022/02/19 04:39:22;;;;;;;3.88;2.08;;;;;20.70;99790.00;;;;2067844;28;20225;-74
2022/02/19 04:40:22;;;;;;;5.57;2.23;;;;;20.70;99769.00;;;;2067931;28;20215;-75
2022/02/19 04:41:22;;;;;;;2.90;1.70;;;;;20.70;99778.00;;;;2068587;28;20674;-74
2022/02/19 04:42:25;;;;;;;3.70;1.63;;;;;20.60;99781.00;;;;2068479;28;20741;-74
2022/02/19 04:43:25;;;;;;;3.72;1.60;;;;;20.60;99782.00;;;;2067927;28;20268;-74
2022/02/19 04:44:26;;;;;;;3.53;1.93;;;;;20.60;99785.00;;;;2067025;28;20218;-74
2022/02/19 04:45:26;;;;;;;3.80;1.50;;;;;20.60;99790.00;;;;2067793;28;20214;-74
2022/02/19 04:46:27;;;;;;;3.20;1.63;;;;;20.60;99788.00;;;;2067814;28;20237;-74
2022/02/19 04:47:27;;;;;;;5.00;1.90;;;;;20.60;99797.00;;;;2067691;28;20489;-74
2022/02/19 04:48:27;;;;;;;2.20;1.50;;;;;20.60;99807.00;;;;2067935;28;20226;-74
2022/02/19 04:49:28;;;;;;;3.10;1.80;;;;;20.60;99799.00;;;;2068584;28;20214;-74
2022/02/19 04:50:28;;;;;;;4.10;1.87;;;;;20.60;99805.00;;;;2068153;28;20219;-74
2022/02/19 04:51:28;;;;;;;3.27;1.80;;;;;20.60;99799.00;;;;2068639;28;20301;-74
2022/02/19 04:52:29;;;;;;;3.10;1.50;;;;;20.60;99799.00;;;;2068297;28;20232;-74
2022/02/19 04:53:29;;;;;;;4.00;2.07;;;;;20.60;99802.00;;;;2067633;28;20214;-74
2022/02/19 04:54:29;;;;;;;4.20;1.50;;;;;20.60;99819.00;;;;2067695;28;20220;-74
2022/02/19 04:55:30;;;;;;;3.67;1.63;;;;;20.60;99819.00;;;;2067572;28;20244;-74
2022/02/19 04:56:31;;;;;;;3.00;1.63;;;;;20.60;99822.00;;;;2067523;28;20215;-74
2022/02/19 04:57:31;;;;;;;2.90;1.50;;;;;20.60;99801.00;;;;2068635;28;20284;-74
2022/02/19 04:58:32;;;;;;;3.83;1.73;;;;;20.60;99812.00;;;;2068281;28;20235;-66
2022/02/19 04:59:32;;;;;;;2.80;1.67;;;;;20.60;99804.00;;;;2067837;28;20618;-69
2022/02/19 05:00:32;;;;;;;3.40;1.60;;;;;20.60;99809.00;;;;2067355;28;20701;-72
2022/02/19 05:01:33;;;;;;;2.73;1.63;;;;;20.60;99822.00;;;;2067804;28;20578;-72